Time;durP1;ratioP1;P1;durP2;ratioP2;P2;SDS_P1;SDS_P2;PMS_P1;PMS_P2;Temp;Humidity;BMP_temperature;BMP_pressure;BME280_temperature;BME280_humidity;BME280_pressure;Samples;Min_cycle;Max_cycle;Signal;HPM_P1;HPM_P2
2022/11/18 00:02:06;;;;;;;0.60;0.60;;;;;;;7.70;100.00;98101.94;5111853;28;20630;-57
2022/11/18 00:04:33;;;;;;;1.37;0.60;;;;;;;7.70;100.00;98104.50;5111585;28;20217;-64
2022/11/18 00:07:00;;;;;;;0.50;0.50;;;;;;;7.70;100.00;98109.56;5111936;28;20229;-57
2022/11/18 00:09:26;;;;;;;0.20;0.20;;;;;;;7.72;100.00;98105.19;5111247;28;20577;-63
2022/11/18 00:14:39;;;;;;;0.20;0.20;;;;;;;7.84;100.00;98109.34;5111472;28;20220;-63
2022/11/18 00:17:06;;;;;;;0.40;0.40;;;;;;;7.89;100.00;98112.34;5111636;28;20205;-57
2022/11/18 00:19:35;;;;;;;1.27;0.90;;;;;;;8.01;100.00;98108.03;5111470;28;20577;-57
2022/11/18 00:22:02;;;;;;;0.50;0.50;;;;;;;8.07;100.00;98101.66;5111496;28;20201;-64
2022/11/18 00:24:29;;;;;;;1.70;0.87;;;;;;;8.11;100.00;98106.38;5111517;28;20567;-57
2022/11/18 00:26:57;;;;;;;0.97;0.63;;;;;;;8.14;99.97;98100.25;5111130;28;20723;-63
2022/11/18 00:29:26;;;;;;;2.33;0.87;;;;;;;8.14;99.83;98105.34;5110775;28;20661;-64
2022/11/18 00:31:55;;;;;;;1.60;0.80;;;;;;;8.16;99.35;98098.41;5111164;28;20209;-57
2022/11/18 00:34:22;;;;;;;0.40;0.40;;;;;;;8.12;99.34;98102.94;5110834;28;20278;-58
2022/11/18 00:36:48;;;;;;;2.37;0.57;;;;;;;8.09;99.60;98107.47;5111076;28;20197;-57
2022/11/18 00:39:17;;;;;;;1.03;0.93;;;;;;;8.03;99.84;98108.75;5110761;28;20221;-57
2022/11/18 00:44:28;;;;;;;1.17;0.83;;;;;;;8.04;99.51;98118.00;5111006;28;20710;-57
2022/11/18 00:46:56;;;;;;;0.40;0.40;;;;;;;7.94;99.47;98110.25;5110973;28;20279;-63
2022/11/18 00:49:23;;;;;;;0.70;0.50;;;;;;;7.98;100.00;98107.47;5110472;28;20651;-64
2022/11/18 00:51:50;;;;;;;1.40;0.70;;;;;;;7.93;99.75;98110.38;5110811;28;20205;-62
2022/11/18 00:54:17;;;;;;;0.97;0.73;;;;;;;7.90;100.00;98106.31;5110437;28;20221;-57
2022/11/18 00:56:43;;;;;;;0.40;0.40;;;;;;;7.82;100.00;98111.19;5110828;28;20254;-64
2022/11/18 00:59:10;;;;;;;0.70;0.60;;;;;;;7.81;100.00;98108.78;5110693;28;20217;-59
2022/11/18 01:01:37;;;;;;;1.00;0.63;;;;;;;7.72;100.00;98107.72;5110640;27;20201;-64
2022/11/18 01:04:05;;;;;;;0.43;0.40;;;;;;;7.69;100.00;98110.50;5110821;28;20221;-63
2022/11/18 01:06:32;;;;;;;0.60;0.60;;;;;;;7.63;100.00;98104.16;5110696;28;20201;-63
2022/11/18 01:08:59;;;;;;;2.37;0.93;;;;;;;7.62;100.00;98094.91;5110633;28;20294;-57
2022/11/18 01:14:06;;;;;;;2.40;0.90;;;;;;;7.57;100.00;98094.44;5076275;28;20263;-63
2022/11/18 01:16:33;;;;;;;0.47;0.43;;;;;;;7.65;100.00;98096.38;5110592;28;20272;-63
2022/11/18 01:19:00;;;;;;;0.53;0.20;;;;;;;7.60;100.00;98091.66;5110661;28;20221;-64
2022/11/18 01:21:28;;;;;;;0.67;0.67;;;;;;;7.61;100.00;98083.09;5110391;28;20682;-63
2022/11/18 01:23:55;;;;;;;1.70;0.70;;;;;;;7.52;100.00;98073.63;5109999;28;20233;-64
2022/11/18 01:26:22;;;;;;;0.83;0.40;;;;;;;7.56;100.00;98069.91;5110194;28;20202;-57
2022/11/18 01:28:49;;;;;;;1.23;0.77;;;;;;;7.59;100.00;98068.88;5110023;28;20239;-57
2022/11/18 01:31:18;;;;;;;0.60;0.60;;;;;;;7.59;100.00;98069.72;5110165;28;20194;-57
2022/11/18 01:33:46;;;;;;;1.00;0.50;;;;;;;7.56;100.00;98071.66;5110345;28;20666;-57
2022/11/18 01:36:17;;;;;;;0.40;0.40;;;;;;;7.56;100.00;98064.03;5110090;28;20205;-63
2022/11/18 01:38:46;;;;;;;1.60;1.07;;;;;;;7.54;100.00;98061.63;5110220;28;20696;-63
2022/11/18 01:41:13;;;;;;;7.20;0.97;;;;;;;7.57;100.00;98068.22;5110217;28;20208;-63
2022/11/18 01:43:51;;;;;;;1.07;0.73;;;;;;;7.53;100.00;98062.53;5110135;28;20263;-64
2022/11/18 01:46:18;;;;;;;0.40;0.40;;;;;;;7.48;100.00;98057.00;5110082;28;20201;-63
2022/11/18 01:48:46;;;;;;;0.83;0.83;;;;;;;7.47;100.00;98060.44;5109905;28;20236;-64
2022/11/18 01:51:16;;;;;;;0.40;0.40;;;;;;;7.37;100.00;98065.44;5109995;28;20204;-63
2022/11/18 01:53:49;;;;;;;0.57;0.53;;;;;;;7.41;100.00;98066.00;5110055;28;20304;-57
2022/11/18 01:56:19;;;;;;;0.60;0.37;;;;;;;7.43;100.00;98059.88;5110235;28;20632;-64
2022/11/18 01:58:50;;;;;;;0.97;0.50;;;;;;;7.51;100.00;98061.06;5109964;28;20239;-62
2022/11/18 02:01:16;;;;;;;0.40;0.40;;;;;;;7.58;100.00;98057.91;5110066;28;20220;-64
2022/11/18 02:03:45;;;;;;;0.37;0.37;;;;;;;7.67;100.00;98056.38;5109714;28;20225;-57
2022/11/18 02:06:13;;;;;;;0.77;0.40;;;;;;;7.84;100.00;98053.34;5111558;28;20254;-64
2022/11/18 02:08:41;;;;;;;0.77;0.67;;;;;;;7.84;100.00;98063.53;5114243;28;20233;-57
2022/11/18 02:11:49;;;;;;;1.13;0.70;;;;;;;7.89;100.00;98060.63;5113722;28;20205;-57
2022/11/18 02:14:02;;;;;;;0.30;0.30;;;;;;;7.98;100.00;98059.94;5113674;28;20226;-57
2022/11/18 02:16:42;;;;;;;0.37;0.37;;;;;;;8.05;100.00;98065.34;5113957;28;20198;-57
2022/11/18 02:19:26;;;;;;;1.53;0.90;;;;;;;8.03;100.00;98067.19;5113616;28;20225;-57
2022/11/18 02:22:06;;;;;;;0.30;0.30;;;;;;;7.99;100.00;98065.81;5113581;28;20209;-57
2022/11/18 02:24:48;;;;;;;0.30;0.30;;;;;;;8.06;100.00;98061.88;5113634;28;20306;-64
2022/11/18 02:27:44;;;;;;;0.20;0.13;;;;;;;8.11;99.80;98060.56;5113568;28;20236;-63
2022/11/18 02:30:16;;;;;;;1.07;0.97;;;;;;;8.14;98.97;98067.16;5079620;27;20681;-57
2022/11/18 02:32:48;;;;;;;1.73;0.60;;;;;;;8.18;98.34;98070.28;5113156;28;20201;-63
2022/11/18 02:35:20;;;;;;;0.20;0.20;;;;;;;8.17;97.92;98066.91;5113498;28;20657;-57
2022/11/18 02:37:52;;;;;;;0.77;0.60;;;;;;;8.23;97.67;98057.97;5113167;28;20258;-63
2022/11/18 02:40:24;;;;;;;0.90;0.60;;;;;;;8.20;96.84;98064.13;5113051;28;20201;-57
2022/11/18 02:42:58;;;;;;;0.40;0.40;;;;;;;8.16;97.01;98073.75;5112983;28;20229;-62
2022/11/18 02:45:28;;;;;;;0.37;0.37;;;;;;;8.19;97.06;98065.06;5113236;28;20197;-63
2022/11/18 02:47:57;;;;;;;4.10;1.07;;;;;;;8.22;96.49;98072.47;5112947;28;20243;-57
2022/11/18 02:50:26;;;;;;;2.20;0.60;;;;;;;8.22;96.80;98067.38;5113306;28;20214;-64
2022/11/18 02:52:57;;;;;;;1.97;0.57;;;;;;;8.22;96.90;98072.47;5113030;28;20760;-63
2022/11/18 02:55:27;;;;;;;1.03;0.27;;;;;;;8.26;96.64;98063.66;5112956;28;20266;-64
2022/11/18 02:57:56;;;;;;;1.37;0.60;;;;;;;8.23;96.41;98068.16;5113056;28;20220;-64
2022/11/18 03:00:22;;;;;;;1.10;0.60;;;;;;;8.18;96.69;98066.00;5112904;28;20262;-64
2022/11/18 03:02:50;;;;;;;1.30;0.70;;;;;;;8.24;96.08;98069.81;5112830;28;20201;-57
2022/11/18 03:05:23;;;;;;;0.30;0.30;;;;;;;8.20;96.07;98071.75;5113031;28;20202;-57
2022/11/18 03:07:56;;;;;;;1.17;0.73;;;;;;;8.19;96.54;98067.59;5112697;28;20327;-64
2022/11/18 03:10:29;;;;;;;0.60;0.53;;;;;;;8.40;95.63;98062.56;5112624;28;20205;-57
2022/11/18 03:13:04;;;;;;;0.30;0.30;;;;;;;8.45;94.52;98059.69;5112614;28;20266;-63
2022/11/18 03:15:37;;;;;;;0.53;0.53;;;;;;;8.36;94.87;98059.44;5112905;28;20201;-57
2022/11/18 03:18:16;;;;;;;0.40;0.40;;;;;;;8.21;95.26;98055.56;5112320;28;20228;-63
2022/11/18 03:20:49;;;;;;;0.77;0.67;;;;;;;8.11;95.61;98057.22;5112368;28;20205;-57
2022/11/18 03:23:24;;;;;;;0.20;0.20;;;;;;;8.09;95.29;98054.00;5112671;28;20229;-58
2022/11/18 03:25:54;;;;;;;0.30;0.30;;;;;;;8.03;95.62;98055.28;5112464;28;20201;-63
2022/11/18 03:28:28;;;;;;;0.73;0.50;;;;;;;8.03;95.72;98055.28;5112343;28;20237;-57
2022/11/18 03:31:03;;;;;;;2.23;0.60;;;;;;;7.97;96.06;98057.47;5112270;28;20284;-64
2022/11/18 03:33:36;;;;;;;0.43;0.43;;;;;;;7.88;95.97;98053.91;5112075;28;20228;-64
2022/11/18 03:36:06;;;;;;;2.00;0.73;;;;;;;7.84;96.55;98055.09;5112679;28;20680;-58
2022/11/18 03:38:38;;;;;;;0.40;0.40;;;;;;;7.88;96.36;98049.66;5111981;28;20232;-58
2022/11/18 03:41:08;;;;;;;0.83;0.50;;;;;;;7.85;96.62;98049.91;5112186;28;20266;-57
2022/11/18 03:43:39;;;;;;;0.40;0.40;;;;;;;7.84;96.82;98050.81;5112279;28;20222;-63
2022/11/18 03:46:10;;;;;;;0.50;0.50;;;;;;;7.80;97.31;98052.00;5112206;28;20209;-57
2022/11/18 03:48:43;;;;;;;0.23;0.20;;;;;;;7.87;96.71;98053.13;5111779;28;20237;-63
2022/11/18 03:51:13;;;;;;;0.93;0.70;;;;;;;7.84;97.41;98057.63;5112021;28;20254;-57
2022/11/18 03:53:45;;;;;;;0.50;0.40;;;;;;;7.84;96.79;98047.47;5111933;28;20246;-57
2022/11/18 03:56:16;;;;;;;0.40;0.40;;;;;;;7.93;97.18;98055.19;5111776;28;20247;-57
2022/11/18 03:58:51;;;;;;;0.20;0.20;;;;;;;7.85;96.72;98060.09;5111578;28;20662;-63
2022/11/18 04:01:22;;;;;;;0.80;0.20;;;;;;;7.78;97.34;98053.84;5111714;28;20692;-63
2022/11/18 04:03:50;;;;;;;0.33;0.27;;;;;;;7.77;97.42;98061.59;5111522;28;20677;-57
2022/11/18 04:06:24;;;;;;;0.47;0.47;;;;;;;7.74;97.60;98060.09;5111653;28;20209;-57
2022/11/18 04:09:00;;;;;;;0.50;0.33;;;;;;;7.71;97.78;98058.59;5111520;28;20236;-63
2022/11/18 04:14:18;;;;;;;0.40;0.40;;;;;;;7.67;97.88;98061.47;5111469;28;20212;-57
2022/11/18 04:16:45;;;;;;;0.90;0.70;;;;;;;7.64;98.25;98066.81;5111392;28;20608;-64
2022/11/18 04:19:13;;;;;;;0.27;0.27;;;;;;;7.69;98.00;98067.25;5111272;28;20224;-63
2022/11/18 04:21:40;;;;;;;1.20;0.57;;;;;;;7.64;98.24;98062.50;5111295;28;20200;-57
2022/11/18 04:24:07;;;;;;;0.30;0.30;;;;;;;7.64;98.54;98062.50;5110946;28;20601;-64
2022/11/18 04:26:34;;;;;;;0.47;0.27;;;;;;;7.62;98.48;98064.38;5111396;28;20201;-63
2022/11/18 04:29:01;;;;;;;0.10;0.10;;;;;;;7.72;98.24;98059.41;5110877;28;20244;-57
2022/11/18 04:31:27;;;;;;;0.20;0.20;;;;;;;7.64;97.92;98056.63;5111188;28;20632;-64
2022/11/18 04:33:54;;;;;;;0.20;0.20;;;;;;;7.67;98.22;98051.31;5110876;28;20233;-57
2022/11/18 04:36:22;;;;;;;0.30;0.30;;;;;;;7.63;97.92;98049.94;5111124;28;20204;-64
2022/11/18 04:38:49;;;;;;;1.17;0.30;;;;;;;7.55;98.10;98053.06;5111064;28;20228;-64
2022/11/18 04:41:16;;;;;;;0.40;0.40;;;;;;;7.54;98.40;98053.19;5111203;28;20254;-57
2022/11/18 04:43:43;;;;;;;0.30;0.30;;;;;;;7.52;98.33;98057.56;5110646;27;20221;-63
2022/11/18 04:46:09;;;;;;;0.53;0.53;;;;;;;7.53;98.27;98054.09;5111039;28;20197;-57
2022/11/18 04:48:36;;;;;;;0.10;0.10;;;;;;;7.52;97.98;98057.56;5110502;28;20701;-57
2022/11/18 04:51:04;;;;;;;0.50;0.50;;;;;;;7.58;97.79;98060.44;5110845;28;20190;-57
2022/11/18 04:53:32;;;;;;;2.77;0.40;;;;;;;7.60;97.96;98060.34;5110893;28;20248;-57
2022/11/18 04:56:05;;;;;;;0.67;0.53;;;;;;;7.75;96.54;98074.44;5110668;28;20196;-63
2022/11/18 04:58:33;;;;;;;0.30;0.30;;;;;;;7.65;96.68;98065.88;5110953;28;20676;-63
2022/11/18 05:01:00;;;;;;;0.50;0.27;;;;;;;7.64;96.53;98071.88;5110857;28;20240;-57
2022/11/18 05:03:26;;;;;;;0.43;0.43;;;;;;;7.63;96.28;98068.53;5110728;28;20221;-57
2022/11/18 05:05:53;;;;;;;0.20;0.20;;;;;;;7.60;96.34;98065.44;5110743;28;20205;-57
2022/11/18 05:08:20;;;;;;;0.23;0.23;;;;;;;7.58;96.15;98062.19;5110277;28;20293;-57
2022/11/18 05:10:48;;;;;;;0.77;0.47;;;;;;;7.65;95.17;98073.50;5110603;28;20208;-57
2022/11/18 05:13:14;;;;;;;0.37;0.37;;;;;;;7.51;95.63;98061.06;5110358;28;20220;-57
2022/11/18 05:15:40;;;;;;;0.93;0.43;;;;;;;7.53;95.87;98066.81;5110291;28;20254;-57
2022/11/18 05:18:10;;;;;;;0.27;0.27;;;;;;;7.47;96.41;98071.44;5110289;28;20225;-63
2022/11/18 05:20:38;;;;;;;0.37;0.27;;;;;;;7.45;96.53;98072.50;5110161;28;20656;-58
2022/11/18 05:23:05;;;;;;;0.30;0.30;;;;;;;7.44;96.69;98064.03;5110334;28;20304;-63
2022/11/18 05:25:31;;;;;;;0.40;0.40;;;;;;;7.45;97.17;98060.59;5110476;28;20205;-63
2022/11/18 05:27:59;;;;;;;0.40;0.40;;;;;;;7.45;96.75;98062.31;5110107;28;20228;-57
2022/11/18 05:30:26;;;;;;;2.53;0.97;;;;;;;7.34;97.29;98063.13;5110097;28;20212;-64
2022/11/18 05:32:53;;;;;;;0.47;0.40;;;;;;;7.34;97.68;98075.84;5109984;28;20232;-63
2022/11/18 05:35:20;;;;;;;1.50;1.27;;;;;;;7.44;97.31;98068.31;5110005;28;20193;-63
2022/11/18 05:37:46;;;;;;;0.57;0.53;;;;;;;7.51;96.67;98071.22;5110292;28;20208;-57
2022/11/18 05:40:13;;;;;;;0.53;0.40;;;;;;;7.54;96.59;98076.88;5111920;28;20200;-57
2022/11/18 05:45:25;;;;;;;0.47;0.47;;;;;;;7.68;95.81;98091.09;5114295;28;20208;-63
2022/11/18 05:48:03;;;;;;;0.63;0.43;;;;;;;7.60;96.15;98086.59;5114151;28;20213;-57
2022/11/18 05:50:30;;;;;;;0.10;0.10;;;;;;;7.61;96.44;98087.38;5114415;28;20197;-63
2022/11/18 05:52:57;;;;;;;0.30;0.30;;;;;;;7.99;95.96;98091.28;5114175;28;20225;-57
2022/11/18 05:55:25;;;;;;;0.20;0.20;;;;;;;7.80;96.01;98090.16;5114105;28;20201;-63
2022/11/18 05:57:52;;;;;;;0.40;0.40;;;;;;;7.70;97.05;98086.69;5114001;28;20217;-57
2022/11/18 06:00:19;;;;;;;0.70;0.50;;;;;;;7.86;97.05;98097.31;5113993;28;20197;-63
2022/11/18 06:02:50;;;;;;;0.40;0.40;;;;;;;7.85;97.41;98095.72;5114268;28;20197;-63
2022/11/18 06:05:19;;;;;;;0.13;0.13;;;;;;;7.89;97.70;98091.97;5113714;28;20197;-57
2022/11/18 06:07:46;;;;;;;0.30;0.30;;;;;;;7.88;98.37;98090.38;5114103;28;20603;-63
2022/11/18 06:10:16;;;;;;;2.10;1.60;;;;;;;7.94;98.92;98087.34;5113996;28;20224;-63
2022/11/18 06:12:47;;;;;;;0.33;0.33;;;;;;;8.05;98.93;98080.59;5113908;28;20197;-57
2022/11/18 06:15:18;;;;;;;1.60;0.50;;;;;;;8.17;99.14;98089.81;5114033;28;20673;-64
2022/11/18 06:17:52;;;;;;;0.27;0.23;;;;;;;8.24;98.99;98085.09;5113832;28;20197;-57
2022/11/18 06:20:21;;;;;;;0.17;0.13;;;;;;;8.35;98.43;98083.31;5114040;28;20577;-64
2022/11/18 06:22:50;;;;;;;1.63;0.20;;;;;;;8.42;97.90;98082.84;5113761;28;20206;-57
2022/11/18 06:25:17;;;;;;;0.50;0.50;;;;;;;8.54;96.90;98081.88;5113572;28;20250;-64
2022/11/18 06:27:46;;;;;;;0.20;0.20;;;;;;;8.91;95.45;98078.91;5113576;28;20661;-58
2022/11/18 06:30:14;;;;;;;0.30;0.30;;;;;;;9.25;93.36;98085.41;5113518;28;20716;-64
2022/11/18 06:32:40;;;;;;;0.20;0.20;;;;;;;9.33;94.11;98089.03;5113127;27;20193;-58
2022/11/18 06:35:09;;;;;;;0.20;0.20;;;;;;;9.48;93.68;98090.31;5113654;28;20611;-64
2022/11/18 06:37:36;;;;;;;0.67;0.50;;;;;;;9.79;93.30;98095.41;5113442;27;20200;-58
2022/11/18 06:40:03;;;;;;;1.90;0.50;;;;;;;10.18;90.41;98101.38;5113382;28;20201;-64
2022/11/18 06:45:14;;;;;;;0.40;0.40;;;;;;;11.01;84.62;98115.38;5113533;28;20683;-64
2022/11/18 06:47:41;;;;;;;0.60;0.60;;;;;;;11.61;82.76;98109.19;5113061;28;20202;-64
2022/11/18 06:50:10;;;;;;;0.40;0.40;;;;;;;12.18;79.20;98099.56;5113125;28;20240;-57
2022/11/18 06:52:37;;;;;;;0.20;0.20;;;;;;;12.68;77.05;98104.19;5112201;28;20197;-64
2022/11/18 06:55:07;;;;;;;0.73;0.47;;;;;;;12.86;75.48;98099.03;5112984;28;20198;-64
2022/11/18 06:57:33;;;;;;;0.80;0.60;;;;;;;13.17;75.74;98096.03;5112906;28;20242;-58
2022/11/18 07:00:00;;;;;;;0.57;0.57;;;;;;;13.41;74.96;98103.06;5112899;28;20197;-64
2022/11/18 07:02:27;;;;;;;0.67;0.63;;;;;;;13.65;74.80;98095.50;5113177;28;20197;-65
2022/11/18 07:04:54;;;;;;;0.50;0.50;;;;;;;13.69;73.50;98096.78;5112795;28;20646;-58
2022/11/18 07:07:22;;;;;;;1.20;0.60;;;;;;;13.64;73.84;98099.00;5112689;28;20205;-58
2022/11/18 07:09:49;;;;;;;0.87;0.87;;;;;;;13.59;74.04;98090.97;5112489;28;20234;-65
2022/11/18 07:12:15;;;;;;;0.67;0.60;;;;;;;13.64;73.81;98086.16;5112593;28;20251;-64
2022/11/18 07:14:42;;;;;;;0.67;0.67;;;;;;;13.86;73.60;98089.16;5112376;28;20222;-58
2022/11/18 07:17:09;;;;;;;1.47;0.83;;;;;;;13.97;72.66;98088.84;5112517;28;20191;-58
2022/11/18 07:19:36;;;;;;;1.10;0.67;;;;;;;14.27;71.12;98080.53;5112548;28;20304;-65
2022/11/18 07:22:02;;;;;;;0.60;0.60;;;;;;;13.70;72.46;98080.44;5112909;28;20190;-57
2022/11/18 07:24:31;;;;;;;1.27;0.80;;;;;;;13.70;73.50;98083.00;5112245;28;20229;-64
2022/11/18 07:26:57;;;;;;;0.77;0.57;;;;;;;13.65;73.18;98085.22;5112519;27;20366;-64
2022/11/18 07:29:24;;;;;;;0.60;0.50;;;;;;;13.91;72.74;98084.34;5112111;28;20246;-57
2022/11/18 07:31:51;;;;;;;1.23;0.73;;;;;;;13.58;74.44;98074.78;5112439;27;20218;-57
2022/11/18 07:34:18;;;;;;;0.67;0.50;;;;;;;14.07;73.64;98079.22;5111963;27;20237;-57
2022/11/18 07:36:44;;;;;;;0.87;0.73;;;;;;;14.37;71.90;98084.72;5112207;28;20203;-58
2022/11/18 07:39:11;;;;;;;0.80;0.77;;;;;;;14.62;72.08;98088.16;5112238;28;20227;-58
2022/11/18 07:41:40;;;;;;;0.83;0.63;;;;;;;14.47;72.31;98075.09;5112027;28;20214;-65
2022/11/18 07:44:07;;;;;;;0.60;0.60;;;;;;;14.94;71.31;98074.47;5111875;27;20217;-58
2022/11/18 07:46:35;;;;;;;0.97;0.63;;;;;;;15.36;70.29;98081.94;5112216;28;20197;-65
2022/11/18 07:49:04;;;;;;;0.97;0.50;;;;;;;15.37;69.80;98077.59;5112188;28;21079;-65
2022/11/18 07:51:33;;;;;;;0.60;0.60;;;;;;;15.43;70.75;98087.22;5112035;28;20204;-65
2022/11/18 07:54:00;;;;;;;0.77;0.63;;;;;;;15.94;69.48;98079.94;5111869;28;20245;-65
2022/11/18 07:56:27;;;;;;;0.67;0.63;;;;;;;16.49;66.73;98081.53;5111802;28;20214;-58
2022/11/18 07:58:56;;;;;;;2.33;0.60;;;;;;;16.83;65.01;98080.28;5111776;27;20690;-62
2022/11/18 08:01:26;;;;;;;0.30;0.30;;;;;;;17.07;63.20;98065.53;5111665;28;20213;-58
2022/11/18 08:03:53;;;;;;;1.60;0.77;;;;;;;17.10;63.83;98080.66;5111022;28;20217;-65
2022/11/18 08:06:20;;;;;;;0.93;0.70;;;;;;;17.55;61.75;98084.06;5111724;28;20730;-65
2022/11/18 08:08:47;;;;;;;1.70;1.17;;;;;;;17.82;62.24;98075.66;5111499;28;20233;-64
2022/11/18 08:11:16;;;;;;;1.10;1.00;;;;;;;18.23;59.93;98077.69;5111554;28;20198;-65
2022/11/18 08:13:43;;;;;;;1.13;1.03;;;;;;;18.13;59.89;98077.19;5111424;28;20222;-65
2022/11/18 08:16:14;;;;;;;0.67;0.60;;;;;;;18.36;58.79;98068.47;5111531;28;20670;-65
2022/11/18 08:18:41;;;;;;;1.47;1.03;;;;;;;18.72;59.14;98070.94;5111684;28;20282;-65
2022/11/18 08:21:08;;;;;;;2.00;1.57;;;;;;;18.92;58.29;98068.53;5111212;27;20682;-65
2022/11/18 08:23:35;;;;;;;1.27;1.17;;;;;;;18.28;57.54;98066.78;5111203;28;20285;-58
2022/11/18 08:26:03;;;;;;;0.80;0.67;;;;;;;18.65;56.95;98064.91;5111288;28;20256;-65
2022/11/18 08:28:30;;;;;;;0.70;0.70;;;;;;;18.82;57.78;98057.69;5111459;28;20310;-58
2022/11/18 08:30:57;;;;;;;1.03;0.93;;;;;;;18.94;57.49;98058.78;5111145;28;20203;-58
2022/11/18 08:33:25;;;;;;;2.03;1.07;;;;;;;18.89;57.63;98068.91;5111337;28;20231;-65
2022/11/18 08:35:52;;;;;;;1.70;1.30;;;;;;;18.46;59.11;98061.16;5110827;27;20720;-58
2022/11/18 08:38:19;;;;;;;2.83;1.23;;;;;;;18.49;57.43;98063.38;5111164;28;20232;-59
2022/11/18 08:40:47;;;;;;;1.90;1.37;;;;;;;18.11;59.71;98058.47;5110754;28;20203;-64
2022/11/18 08:43:14;;;;;;;1.60;1.00;;;;;;;18.53;61.08;98051.69;5110714;28;20309;-65
2022/11/18 08:45:41;;;;;;;1.33;1.00;;;;;;;18.30;61.90;98052.69;5110743;28;20205;-58
2022/11/18 08:48:08;;;;;;;2.27;1.13;;;;;;;18.99;59.87;98061.59;5110758;28;20230;-65
2022/11/18 08:50:36;;;;;;;1.53;1.20;;;;;;;18.44;62.35;98048.44;5110766;28;20231;-64
2022/11/18 08:53:03;;;;;;;2.17;1.40;;;;;;;17.94;58.76;98044.16;5110991;28;20620;-65
2022/11/18 08:55:30;;;;;;;1.10;0.80;;;;;;;17.24;62.54;98035.97;5110734;28;20193;-65
2022/11/18 08:57:56;;;;;;;1.00;0.83;;;;;;;17.42;61.77;98033.84;5110473;28;20293;-58
2022/11/18 09:00:23;;;;;;;1.53;1.00;;;;;;;17.03;62.74;98028.16;5110796;28;20204;-58
2022/11/18 09:02:50;;;;;;;0.83;0.83;;;;;;;17.18;63.60;98028.94;5110654;28;20200;-65
2022/11/18 09:05:17;;;;;;;0.73;0.73;;;;;;;17.67;61.90;98023.16;5110511;28;20193;-65
2022/11/18 09:07:45;;;;;;;3.00;1.07;;;;;;;17.75;61.14;98019.69;5110455;28;20243;-58
2022/11/18 09:10:12;;;;;;;0.87;0.80;;;;;;;17.70;62.54;98012.47;5110505;28;20696;-58
2022/11/18 09:12:38;;;;;;;1.03;0.90;;;;;;;17.54;62.91;98016.06;5110326;28;20200;-65
2022/11/18 09:15:07;;;;;;;1.87;1.20;;;;;;;17.49;63.27;98002.91;5109969;28;20197;-58
2022/11/18 09:17:34;;;;;;;1.83;1.07;;;;;;;17.82;62.13;98003.25;5110489;28;20198;-58
2022/11/18 09:20:01;;;;;;;1.63;1.10;;;;;;;17.92;62.75;97999.56;5110689;28;20659;-58
2022/11/18 09:22:28;;;;;;;1.43;1.27;;;;;;;18.18;61.49;97992.06;5110271;28;20195;-66
2022/11/18 09:24:56;;;;;;;2.07;1.23;;;;;;;17.61;63.87;97983.34;5110108;28;20222;-58
2022/11/18 09:27:23;;;;;;;1.67;1.17;;;;;;;17.51;63.72;97984.59;5110237;28;20195;-58
2022/11/18 09:29:49;;;;;;;1.83;1.60;;;;;;;18.04;62.86;97982.59;5110063;28;20229;-66
2022/11/18 09:32:16;;;;;;;1.60;1.10;;;;;;;18.45;61.86;97984.53;5110129;28;20726;-65
2022/11/18 09:34:43;;;;;;;2.53;1.60;;;;;;;18.20;60.68;97984.91;5110008;28;20231;-58
2022/11/18 09:37:11;;;;;;;3.43;1.70;;;;;;;17.51;63.43;97975.09;5109965;28;20191;-59
2022/11/18 09:39:37;;;;;;;1.07;0.87;;;;;;;17.01;65.38;97963.75;5109830;28;20732;-65
2022/11/18 09:42:20;;;;;;;1.73;1.30;;;;;;;17.12;65.20;97949.59;5109975;28;20803;-66
2022/11/18 09:45:07;;;;;;;2.13;1.30;;;;;;;17.57;64.61;97952.84;5109973;28;20249;-59
2022/11/18 09:47:36;;;;;;;3.13;1.83;;;;;;;17.30;65.15;97955.16;5110223;28;20628;-66
2022/11/18 09:50:05;;;;;;;2.23;1.37;;;;;;;17.03;67.45;97945.50;5110029;28;20230;-58
2022/11/18 09:52:38;;;;;;;2.73;1.80;;;;;;;16.75;67.35;97949.50;5110292;28;20198;-66
2022/11/18 09:55:12;;;;;;;2.97;1.90;;;;;;;17.18;67.43;97933.38;5110141;28;20199;-65
2022/11/18 09:57:45;;;;;;;2.17;1.53;;;;;;;17.33;67.92;97916.03;5109984;28;20285;-58
2022/11/18 10:00:15;;;;;;;1.33;1.10;;;;;;;17.99;68.38;97912.53;5109955;28;20208;-65
2022/11/18 10:02:53;;;;;;;2.03;1.30;;;;;;;18.05;65.54;97920.31;5110036;28;20247;-65
2022/11/18 10:05:22;;;;;;;1.67;1.10;;;;;;;18.43;63.69;97914.03;5109793;28;20855;-66
2022/11/18 10:08:05;;;;;;;1.53;1.43;;;;;;;18.39;62.51;97905.06;5109521;28;20192;-66
2022/11/18 10:10:41;;;;;;;1.37;1.00;;;;;;;18.05;64.18;97909.19;5109577;28;20899;-66
2022/11/18 10:13:17;;;;;;;1.10;1.00;;;;;;;18.67;64.23;97898.00;5109882;28;20250;-65
2022/11/18 10:15:55;;;;;;;1.53;0.90;;;;;;;19.10;62.42;97892.66;5109741;28;20197;-58
2022/11/18 10:18:29;;;;;;;2.00;1.03;;;;;;;19.26;61.62;97888.09;5109689;28;20217;-59
2022/11/18 10:21:02;;;;;;;1.30;1.10;;;;;;;19.43;61.59;97887.56;5109776;28;20231;-65
2022/11/18 10:23:34;;;;;;;1.37;0.93;;;;;;;19.45;60.20;97879.56;5110010;28;20230;-58
2022/11/18 10:26:01;;;;;;;2.23;1.27;;;;;;;19.58;61.19;97884.00;5109813;28;20190;-58
2022/11/18 10:28:30;;;;;;;1.90;1.27;;;;;;;20.29;59.41;97873.81;5113663;28;20224;-65
2022/11/18 10:31:05;;;;;;;0.60;0.60;;;;;;;20.80;58.00;97877.50;5113545;28;20299;-58
2022/11/18 10:33:32;;;;;;;1.53;1.00;;;;;;;20.71;56.50;97878.72;5113745;28;20240;-65
2022/11/18 10:36:11;;;;;;;1.23;0.97;;;;;;;20.28;57.31;97871.44;5113588;27;20198;-59
2022/11/18 10:38:38;;;;;;;1.43;1.17;;;;;;;19.45;60.29;97864.03;5113263;27;20221;-65
2022/11/18 10:41:08;;;;;;;1.80;1.13;;;;;;;19.87;61.51;97859.50;5113264;28;20197;-65
2022/11/18 10:43:49;;;;;;;1.23;1.10;;;;;;;20.39;62.31;97855.22;5113187;28;20222;-66
2022/11/18 10:46:25;;;;;;;1.13;1.03;;;;;;;20.41;58.48;97855.81;5113337;28;20195;-59
2022/11/18 10:49:15;;;;;;;1.30;1.20;;;;;;;20.56;56.57;97851.19;5112919;28;20310;-59
2022/11/18 10:51:44;;;;;;;1.43;1.10;;;;;;;19.93;57.58;97860.50;5113122;28;20748;-62
2022/11/18 10:54:17;;;;;;;1.40;1.23;;;;;;;20.18;58.46;97852.88;5113347;28;20224;-58
2022/11/18 10:56:47;;;;;;;2.47;1.20;;;;;;;20.09;57.66;97849.69;5112948;28;20209;-59
2022/11/18 10:59:25;;;;;;;1.50;1.20;;;;;;;19.64;60.40;97847.69;5112754;28;20222;-58
2022/11/18 11:02:13;;;;;;;1.23;1.03;;;;;;;19.41;60.62;97848.06;5112991;28;20305;-59
2022/11/18 11:04:40;;;;;;;2.03;1.20;;;;;;;19.19;62.28;97844.03;5112787;28;20611;-66
2022/11/18 11:07:24;;;;;;;2.20;1.23;;;;;;;19.08;63.04;97842.03;5112682;28;20273;-66
2022/11/18 11:10:17;;;;;;;2.07;1.60;;;;;;;18.98;63.62;97852.75;5112867;28;20497;-65
2022/11/18 11:12:49;;;;;;;1.63;1.37;;;;;;;18.72;64.62;97843.06;5112626;28;20312;-59
2022/11/18 11:15:23;;;;;;;3.03;1.30;;;;;;;18.53;65.61;97831.66;5112669;28;20199;-60
2022/11/18 11:20:37;;;;;;;1.13;0.97;;;;;;;19.02;64.33;97830.66;5112329;28;20620;-66
2022/11/18 11:23:09;;;;;;;2.00;1.00;;;;;;;19.01;63.19;97823.88;5112650;28;20763;-65
2022/11/18 11:25:43;;;;;;;1.70;1.20;;;;;;;18.96;64.80;97818.47;5112328;28;20289;-66
2022/11/18 11:28:21;;;;;;;2.13;1.27;;;;;;;18.99;64.72;97813.72;5112663;28;20628;-66
2022/11/18 11:31:01;;;;;;;1.70;1.30;;;;;;;19.31;62.78;97811.38;5112457;27;20229;-66
2022/11/18 11:33:38;;;;;;;1.60;1.47;;;;;;;19.77;63.68;97815.00;5112286;28;20706;-65
2022/11/18 11:36:30;;;;;;;2.40;1.30;;;;;;;20.18;60.06;97829.50;5112237;28;20477;-58
2022/11/18 11:39:06;;;;;;;1.60;1.27;;;;;;;19.96;61.37;97824.56;5112505;28;20282;-66
2022/11/18 11:41:43;;;;;;;1.97;1.50;;;;;;;20.00;61.31;97814.56;5112371;28;20190;-65
2022/11/18 11:44:35;;;;;;;3.37;1.30;;;;;;;20.20;61.09;97819.72;5112060;28;20224;-59
2022/11/18 11:50:12;;;;;;;3.43;1.60;;;;;;;20.02;61.35;97810.00;5111904;28;20234;-65
2022/11/18 11:52:46;;;;;;;2.60;1.40;;;;;;;19.97;61.50;97802.81;5111691;28;20200;-66
2022/11/18 11:55:22;;;;;;;2.67;1.30;;;;;;;20.19;60.11;97787.78;5111818;28;20205;-59
2022/11/18 11:58:19;;;;;;;1.33;1.10;;;;;;;19.89;60.86;97801.22;5111488;28;20228;-59
2022/11/18 12:00:56;;;;;;;2.70;1.40;;;;;;;19.75;61.22;97796.25;5112012;27;20551;-60
2022/11/18 12:03:44;;;;;;;4.60;1.40;;;;;;;19.37;61.66;97800.22;5111964;28;20224;-58
2022/11/18 12:06:11;;;;;;;1.70;1.43;;;;;;;19.43;64.26;97802.03;5111638;28;20211;-59
2022/11/18 12:08:42;;;;;;;2.57;1.90;;;;;;;19.46;62.26;97803.44;5111877;28;20292;-59
2022/11/18 12:11:16;;;;;;;1.87;1.40;;;;;;;19.37;62.53;97791.63;5111436;28;20234;-58
2022/11/18 12:13:50;;;;;;;1.50;1.07;;;;;;;19.28;64.57;97783.25;5111771;28;20713;-65